Hauptseite
METAR-TAF:

METAR-TAF

Flughäfen :

Mendoza, Argentinien

Flughafen Mendoza

Breite: 32-50S, Länge: 068-47W, Höhe: 705 m

Beobachtung

Neuester Wetterbericht von vor 56 Minuten, um 12:00 UTC
Wind 2 kt aus West
Temperatur 4°C
Luftfeuchtigkeit 75%
Luftdruck 1021 hPa
Sichtweite 10 km oder mehr
keine Wolken unter 1500 m und keine Kumulonimbus oder Gewitterwolken

METAR: SAME 211200Z 27002KT CAVOK 04/M00 Q1021

Zeit: 09:56 (12:56 UTC)

Prognose

Neuester Wetterbericht von vor 1 Stunde und 56 Minuten, um 11:00 UTC
Gültige Prognose vom 21 um 12 UTC bis 22 um 12 UTC
Wind 5 kt aus Nordost
Sichtweite 10 km oder mehr
keine Wolken unter 1500 m und keine Kumulonimbus oder Gewitterwolken
Zeitweise
vom 21 um 12 UTC bis 21 um 14 UTC
Wind kt aus Nord
Sichtweite: 5000 m
Himmel klar

TAF: SAME 211100Z 2112/2212 05005KT CAVOK TX20/2120Z TN03/2210Z TEMPO 2112/2114 00000KT 5000 FUBR SKC

Wetterbeobachtungen und Prognosen von mehr als 4000 Flughäfen (METAR und TAF Bericht).

Die verfügbaren Stationen werden durch gelbe und rote Markierungen auf der Karte dargestellt.

Führen Sie die Maus auf sie, um den Namen der Station zu sehen.

Darauf klicken, um die Beobachtung von Wetterbeobachtungen und Prognosen zu sehen.

Um die Karte zu ändern : klicken Sie auf den grünen Tasten mit einem schwarzen Kreuz Zum Vergrößern, auf den grünen Button mit einem Gedankenstrich zu verkleinern, oder auf die grünen Pfeile für benachbarte Karten.


METAR-TAF: